createdAt,value
2023-01-02T00:02:02.219Z,30.20
2023-01-02T00:04:31.481Z,27.55
2023-01-02T00:07:02.279Z,27.92
2023-01-02T00:09:31.662Z,24.13
2023-01-02T00:12:00.617Z,30.48
2023-01-02T00:14:30.034Z,29.13
2023-01-02T00:16:59.113Z,33.60
2023-01-02T00:19:28.373Z,26.55
2023-01-02T00:21:57.428Z,23.17
2023-01-02T00:24:28.700Z,25.73
2023-01-02T00:26:57.801Z,20.35
2023-01-02T00:29:27.096Z,12.80
2023-01-02T00:31:56.228Z,13.27
2023-01-02T00:34:26.751Z,13.60
2023-01-02T00:36:55.881Z,13.90
2023-01-02T00:39:25.151Z,8.73
2023-01-02T00:41:55.664Z,10.82
2023-01-02T00:44:24.953Z,8.70
2023-01-02T00:46:54.871Z,9.15
2023-01-02T00:49:24.495Z,8.27
2023-01-02T00:51:53.482Z,9.65
2023-01-02T00:54:22.780Z,11.27
2023-01-02T00:56:51.919Z,12.20
2023-01-02T00:59:22.625Z,7.97
2023-01-02T01:01:52.060Z,10.75
2023-01-02T01:06:51.076Z,12.25
2023-01-02T01:09:20.506Z,10.85
2023-01-02T01:11:49.466Z,8.95
2023-01-02T01:14:18.961Z,10.45
2023-01-02T01:16:49.441Z,11.20
2023-01-02T01:19:18.683Z,17.60
2023-01-02T01:21:47.652Z,18.58
2023-01-02T01:24:17.670Z,14.38
2023-01-02T01:26:46.761Z,16.17
2023-01-02T01:29:16.014Z,14.15
2023-01-02T01:31:45.225Z,17.83
2023-01-02T01:34:16.254Z,18.80
2023-01-02T01:36:45.736Z,15.70
2023-01-02T01:39:15.035Z,16.30
2023-01-02T01:41:44.204Z,13.95
2023-01-02T01:44:42.813Z,12.98
2023-01-02T01:47:19.873Z,19.55
2023-01-02T01:49:52.831Z,15.95
2023-01-02T01:52:26.953Z,15.45
2023-01-02T01:55:01.035Z,13.93
2023-01-02T01:57:37.483Z,12.15
2023-01-02T02:00:08.319Z,12.93
2023-01-02T02:02:41.199Z,18.77
2023-01-02T02:05:16.134Z,10.18
2023-01-02T02:07:52.583Z,10.85
2023-01-02T02:10:22.303Z,8.70
2023-01-02T02:12:51.323Z,18.77
2023-01-02T02:15:29.310Z,8.27
2023-01-02T02:18:07.685Z,9.43
2023-01-02T02:20:51.169Z,14.40
2023-01-02T02:23:43.088Z,13.65
2023-01-02T02:26:49.716Z,11.02
2023-01-02T02:30:04.086Z,11.10
2023-01-02T02:32:56.490Z,13.43
2023-01-02T02:35:37.398Z,9.13
2023-01-02T02:38:13.188Z,10.85
2023-01-02T02:40:54.121Z,9.13
2023-01-02T02:43:31.423Z,10.57
2023-01-02T02:46:10.668Z,10.90
2023-01-02T02:51:21.993Z,9.80
2023-01-02T02:53:59.301Z,13.75
2023-01-02T02:56:30.829Z,11.18
2023-01-02T02:59:00.930Z,9.15
2023-01-02T03:04:01.143Z,8.27
2023-01-02T03:06:46.701Z,11.93
2023-01-02T03:09:20.272Z,10.82
2023-01-02T03:11:56.326Z,13.70
2023-01-02T03:14:32.789Z,10.68
2023-01-02T03:17:08.821Z,9.95
2023-01-02T03:19:44.211Z,10.35
2023-01-02T03:22:16.141Z,9.80
2023-01-02T03:24:47.799Z,8.13
2023-01-02T03:27:20.582Z,8.65
2023-01-02T03:29:55.677Z,9.75
2023-01-02T03:32:31.878Z,9.32
2023-01-02T03:35:05.377Z,9.57
2023-01-02T03:37:39.708Z,8.30
2023-01-02T03:40:14.482Z,11.52
2023-01-02T03:42:51.538Z,12.73
2023-01-02T03:45:26.485Z,11.13
2023-01-02T03:48:04.039Z,10.75
2023-01-02T03:50:37.904Z,6.72
2023-01-02T03:53:08.739Z,15.10
2023-01-02T03:55:41.693Z,10.70
2023-01-02T03:58:17.882Z,11.98
2023-01-02T04:00:57.116Z,12.25
2023-01-02T04:03:35.269Z,7.88
2023-01-02T04:06:10.569Z,8.45
2023-01-02T04:08:46.105Z,10.90
2023-01-02T04:11:19.103Z,8.50
2023-01-02T04:13:52.245Z,7.78
2023-01-02T04:16:25.494Z,7.50
2023-01-02T04:18:59.542Z,10.50
2023-01-02T04:21:33.585Z,12.48
2023-01-02T04:24:09.252Z,11.93
2023-01-02T04:26:46.200Z,7.60
2023-01-02T04:29:15.570Z,9.75
2023-01-02T04:31:48.667Z,9.00
2023-01-02T04:34:22.294Z,13.60
2023-01-02T04:36:51.927Z,9.75
2023-01-02T04:39:23.834Z,12.80
2023-01-02T04:41:53.109Z,12.48
2023-01-02T04:44:22.218Z,17.08
2023-01-02T04:46:51.496Z,15.00
2023-01-02T04:49:22.847Z,18.45
2023-01-02T04:51:52.232Z,18.67
2023-01-02T04:54:21.434Z,16.60
2023-01-02T04:59:19.563Z,17.53
2023-01-02T05:01:49.003Z,15.05
2023-01-02T05:04:18.102Z,16.95
2023-01-02T05:09:17.907Z,17.30
2023-01-02T05:11:48.181Z,20.25
2023-01-02T05:14:17.221Z,14.98
2023-01-02T05:16:46.526Z,15.70
2023-01-02T05:19:15.843Z,17.95
2023-01-02T05:22:02.733Z,13.68
2023-01-02T05:24:33.125Z,18.77
2023-01-02T05:27:02.505Z,21.00
2023-01-02T05:29:33.305Z,18.75
2023-01-02T05:32:02.795Z,16.85
2023-01-02T05:34:31.862Z,17.85
2023-01-02T05:37:01.243Z,14.18
2023-01-02T05:39:30.208Z,13.23
2023-01-02T05:42:00.944Z,17.92
2023-01-02T05:44:30.127Z,14.52
2023-01-02T05:49:28.414Z,13.80
2023-01-02T05:51:57.772Z,16.80
2023-01-02T05:54:26.758Z,15.85
2023-01-02T05:56:57.207Z,16.45
2023-01-02T05:59:27.877Z,18.42
2023-01-02T06:02:03.191Z,15.18
2023-01-02T06:04:32.449Z,17.15
2023-01-02T06:07:01.951Z,16.00
2023-01-02T06:09:30.955Z,16.15
2023-01-02T06:12:00.385Z,18.83
2023-01-02T06:14:30.880Z,13.20
2023-01-02T06:17:01.107Z,18.95
2023-01-02T06:19:30.252Z,22.55
2023-01-02T06:21:59.538Z,17.92
2023-01-02T06:24:29.663Z,17.85
2023-01-02T06:26:59.060Z,20.50
2023-01-02T06:29:29.457Z,20.67
2023-01-02T06:31:58.957Z,24.25
2023-01-02T06:34:28.034Z,22.85
2023-01-02T06:36:57.416Z,21.48
2023-01-02T06:39:27.025Z,21.65
2023-01-02T06:42:21.406Z,26.10
2023-01-02T06:44:51.955Z,22.15
2023-01-02T06:47:21.614Z,20.33
2023-01-02T06:49:50.572Z,27.60
2023-01-02T06:52:20.112Z,23.73
2023-01-02T06:54:49.116Z,23.42
2023-01-02T06:57:18.568Z,30.95
2023-01-02T06:59:47.577Z,24.45
2023-01-02T07:02:18.405Z,24.10
2023-01-02T07:04:48.101Z,24.77
2023-01-02T07:07:17.421Z,24.95
2023-01-02T07:09:46.407Z,17.83
2023-01-02T07:12:15.662Z,20.67
2023-01-02T07:14:44.656Z,20.20
2023-01-02T07:17:14.384Z,24.33
2023-01-02T07:19:49.840Z,17.63
2023-01-02T07:22:22.590Z,24.85
2023-01-02T07:24:51.575Z,22.00
2023-01-02T07:27:20.980Z,22.58
2023-01-02T07:29:49.986Z,21.95
2023-01-02T07:32:25.411Z,23.77
2023-01-02T07:34:57.780Z,30.55
2023-01-02T07:37:27.333Z,25.58
2023-01-02T07:39:56.327Z,28.55
2023-01-02T07:42:25.651Z,32.65
2023-01-02T07:44:55.057Z,31.55
2023-01-02T07:47:24.435Z,31.45
2023-01-02T07:49:53.426Z,31.67
2023-01-02T07:52:24.059Z,36.08
2023-01-02T07:54:53.223Z,30.38
2023-01-02T07:57:22.464Z,40.08
2023-01-02T07:59:53.669Z,38.42
2023-01-02T08:02:23.234Z,37.70
2023-01-02T08:04:52.478Z,37.95
2023-01-02T08:07:23.377Z,33.30
2023-01-02T08:09:52.434Z,40.60
2023-01-02T08:12:21.747Z,32.47
2023-01-02T08:14:51.699Z,37.30
2023-01-02T08:17:21.080Z,38.25
2023-01-02T08:19:50.180Z,40.90
2023-01-02T08:22:19.842Z,44.72
2023-01-02T08:27:19.828Z,40.67
2023-01-02T08:29:49.358Z,39.65
2023-01-02T08:32:18.838Z,39.15
2023-01-02T08:34:48.175Z,37.97
2023-01-02T08:39:46.535Z,37.83
2023-01-02T08:42:17.544Z,41.90
2023-01-02T08:44:46.684Z,38.35
2023-01-02T08:47:16.368Z,38.10
2023-01-02T08:49:46.285Z,37.72
2023-01-02T08:52:15.662Z,39.53
2023-01-02T08:54:45.093Z,37.17
2023-01-02T08:57:15.931Z,39.90
2023-01-02T08:59:45.048Z,41.53
2023-01-02T09:02:15.804Z,39.17
2023-01-02T09:04:44.990Z,45.83
2023-01-02T09:07:16.034Z,38.00
2023-01-02T09:09:45.178Z,43.08
2023-01-02T09:12:14.487Z,40.90
2023-01-02T09:14:44.968Z,39.28
2023-01-02T09:17:14.497Z,44.03
2023-01-02T09:19:45.142Z,46.63
2023-01-02T09:22:14.553Z,42.28
2023-01-02T09:24:43.919Z,48.20
2023-01-02T09:27:13.827Z,44.05
2023-01-02T09:29:44.338Z,44.55
2023-01-02T09:32:13.724Z,38.15
2023-01-02T09:34:42.665Z,39.33
2023-01-02T09:37:11.938Z,41.50
2023-01-02T09:39:40.922Z,43.28
2023-01-02T09:42:16.712Z,40.83
2023-01-02T09:44:50.267Z,42.63
2023-01-02T09:47:21.832Z,37.88
2023-01-02T09:49:54.355Z,47.33
2023-01-02T09:52:27.568Z,40.70
2023-01-02T09:54:56.929Z,43.70
2023-01-02T09:57:41.488Z,38.92
2023-01-02T10:00:20.362Z,36.28
2023-01-02T10:03:08.052Z,38.88
2023-01-02T10:06:07.323Z,36.90
2023-01-02T10:08:51.688Z,33.75
2023-01-02T10:11:33.348Z,36.75
2023-01-02T10:14:18.500Z,32.22
2023-01-02T10:16:52.451Z,34.13
2023-01-02T10:19:29.031Z,35.55
2023-01-02T10:22:01.846Z,33.72
2023-01-02T10:24:41.362Z,38.65
2023-01-02T10:27:18.420Z,35.65
2023-01-02T10:29:53.148Z,35.80
2023-01-02T10:32:28.078Z,38.58
2023-01-02T10:35:10.668Z,39.67
2023-01-02T10:37:40.954Z,35.33
2023-01-02T10:40:10.938Z,36.92
2023-01-02T10:42:41.174Z,30.85
2023-01-02T10:45:17.161Z,36.95
2023-01-02T10:47:47.682Z,34.78
2023-01-02T10:50:22.024Z,35.90
2023-01-02T10:52:53.948Z,41.47
2023-01-02T10:55:34.945Z,40.83
2023-01-02T10:58:06.197Z,31.42
2023-01-02T11:00:37.698Z,30.63
2023-01-02T11:03:17.336Z,36.47
2023-01-02T11:05:49.493Z,26.80
2023-01-02T11:08:22.057Z,27.85
2023-01-02T11:10:52.443Z,34.67
2023-01-02T11:13:22.959Z,29.88
2023-01-02T11:15:58.271Z,29.58
2023-01-02T11:18:32.178Z,36.85
2023-01-02T11:21:05.122Z,29.13
2023-01-02T11:23:39.043Z,26.38
2023-01-02T11:26:20.341Z,28.10
2023-01-02T11:28:52.756Z,33.45
2023-01-02T11:31:23.978Z,24.40
2023-01-02T11:34:08.112Z,27.30
2023-01-02T11:36:37.901Z,24.40
2023-01-02T11:39:23.591Z,25.33
2023-01-02T11:42:17.941Z,21.30
2023-01-02T11:44:55.653Z,23.05
2023-01-02T11:47:33.718Z,20.75
2023-01-02T11:50:05.357Z,24.50
2023-01-02T11:52:47.492Z,22.55
2023-01-02T11:55:29.464Z,25.70
2023-01-02T11:58:07.089Z,22.17
2023-01-02T12:00:40.445Z,32.13
2023-01-02T12:03:18.934Z,21.80
2023-01-02T12:06:04.065Z,25.40
2023-01-02T12:08:50.665Z,20.95
2023-01-02T12:11:33.707Z,21.20
2023-01-02T12:14:14.035Z,19.85
2023-01-02T12:16:52.272Z,20.80
2023-01-02T12:22:42.288Z,23.60
2023-01-02T12:25:36.126Z,19.60
2023-01-02T12:28:13.495Z,20.33
2023-01-02T12:30:49.702Z,24.80
2023-01-02T12:33:42.333Z,18.70
2023-01-02T12:36:25.816Z,19.75
2023-01-02T12:39:33.127Z,19.67
2023-01-02T12:42:19.512Z,19.65
2023-01-02T12:44:52.027Z,19.75
2023-01-02T12:47:49.536Z,18.67
2023-01-02T12:50:49.201Z,17.48
2023-01-02T12:53:38.668Z,21.75
2023-01-02T12:56:14.072Z,19.40
2023-01-02T12:59:06.788Z,20.25
2023-01-02T13:01:42.411Z,17.35
2023-01-02T13:04:18.142Z,22.10
2023-01-02T13:06:51.821Z,19.85
2023-01-02T13:09:28.715Z,20.77
2023-01-02T13:12:05.682Z,18.83
2023-01-02T13:14:40.993Z,14.32
2023-01-02T13:17:30.573Z,14.75
2023-01-02T13:20:13.534Z,15.23
2023-01-02T13:22:55.393Z,18.95
2023-01-02T13:25:26.221Z,26.83
2023-01-02T13:27:59.227Z,14.85
2023-01-02T13:30:44.417Z,19.00
2023-01-02T13:33:35.039Z,17.88
2023-01-02T13:36:17.638Z,15.45
2023-01-02T13:38:50.634Z,20.08
2023-01-02T13:41:21.551Z,20.35
2023-01-02T13:43:56.587Z,17.52
2023-01-02T13:49:21.943Z,16.92
2023-01-02T13:51:59.852Z,16.83
2023-01-02T13:54:38.121Z,22.33
2023-01-02T13:57:19.514Z,13.23
2023-01-02T14:00:01.609Z,17.27
2023-01-02T14:02:42.878Z,15.57
2023-01-02T14:05:49.258Z,18.67
2023-01-02T14:08:26.066Z,14.85
2023-01-02T14:10:58.364Z,20.83
2023-01-02T14:13:35.805Z,19.45
2023-01-02T14:16:45.835Z,16.48
2023-01-02T14:19:26.907Z,15.95
2023-01-02T14:22:06.596Z,18.02
2023-01-02T14:24:39.883Z,14.20
2023-01-02T14:27:22.701Z,17.35
2023-01-02T14:29:55.097Z,15.48
2023-01-02T14:32:36.976Z,14.75
2023-01-02T14:35:09.300Z,20.50
2023-01-02T14:37:44.052Z,17.25
2023-01-02T14:40:34.155Z,14.82
2023-01-02T14:43:23.633Z,18.25
2023-01-02T14:45:56.463Z,13.95
2023-01-02T14:48:33.263Z,20.05
2023-01-02T14:51:07.803Z,15.95
2023-01-02T14:53:42.464Z,17.27
2023-01-02T14:56:15.771Z,18.45
2023-01-02T14:58:47.218Z,18.20
2023-01-02T15:01:42.122Z,13.57
2023-01-02T15:04:21.754Z,14.85
2023-01-02T15:06:57.167Z,16.05
2023-01-02T15:09:33.897Z,14.75
2023-01-02T15:12:23.699Z,12.63
2023-01-02T15:17:25.193Z,12.98
2023-01-02T15:19:55.823Z,13.50
2023-01-02T15:22:30.757Z,14.10
2023-01-02T15:24:59.866Z,15.95
2023-01-02T15:27:31.664Z,15.85
2023-01-02T15:30:02.963Z,14.55
2023-01-02T15:32:34.828Z,13.15
2023-01-02T15:35:23.694Z,12.15
2023-01-02T15:37:53.828Z,18.75
2023-01-02T15:40:27.761Z,20.08
2023-01-02T15:43:19.326Z,13.57
2023-01-02T15:45:51.458Z,15.82
2023-01-02T15:48:22.806Z,16.35
2023-01-02T15:50:56.476Z,13.90
2023-01-02T15:53:30.375Z,15.57
2023-01-02T15:56:00.391Z,13.80
2023-01-02T15:58:31.900Z,12.35
2023-01-02T16:01:15.467Z,14.98
2023-01-02T16:04:02.971Z,13.80
2023-01-02T16:06:40.287Z,13.32
2023-01-02T16:09:20.626Z,15.27
2023-01-02T16:11:53.018Z,16.25
2023-01-02T16:14:30.953Z,12.90
2023-01-02T16:17:04.818Z,11.02
2023-01-02T16:19:38.253Z,14.10
2023-01-02T16:22:21.100Z,13.68
2023-01-02T16:24:57.066Z,20.83
2023-01-02T16:27:29.906Z,13.40
2023-01-02T16:29:59.753Z,14.65
2023-01-02T16:35:20.831Z,14.02
2023-01-02T16:37:57.205Z,16.90
2023-01-02T16:41:00.237Z,16.33
2023-01-02T16:43:34.406Z,12.43
2023-01-02T16:46:14.780Z,13.63
2023-01-02T16:48:45.112Z,15.48
2023-01-02T16:51:16.907Z,13.40
2023-01-02T16:53:47.547Z,16.23
2023-01-02T16:56:17.793Z,15.38
2023-01-02T16:58:47.157Z,13.50
2023-01-02T17:01:18.495Z,13.45
2023-01-02T17:03:47.822Z,12.13
2023-01-02T17:06:19.152Z,15.02
2023-01-02T17:08:49.839Z,16.13
2023-01-02T17:11:23.145Z,13.10
2023-01-02T17:13:52.655Z,13.75
2023-01-02T17:16:22.204Z,14.88
2023-01-02T17:18:51.256Z,12.00
2023-01-02T17:21:24.203Z,15.10
2023-01-02T17:23:58.198Z,13.73
2023-01-02T17:26:27.633Z,14.73
2023-01-02T17:28:56.924Z,14.02
2023-01-02T17:31:26.557Z,10.05
2023-01-02T17:33:55.866Z,13.75
2023-01-02T17:38:59.732Z,16.13
2023-01-02T17:41:29.216Z,15.75
2023-01-02T17:44:02.628Z,16.50
2023-01-02T17:49:22.818Z,15.63
2023-01-02T17:51:52.078Z,18.58
2023-01-02T17:54:22.600Z,14.18
2023-01-02T17:56:52.088Z,14.07
2023-01-02T17:59:21.283Z,17.65
2023-01-02T18:01:51.182Z,14.00
2023-01-02T18:04:20.282Z,16.23
2023-01-02T18:09:19.100Z,12.50
2023-01-02T18:11:50.529Z,18.67
2023-01-02T18:14:24.618Z,14.57
2023-01-02T18:16:57.409Z,16.20
2023-01-02T18:19:28.743Z,13.25
2023-01-02T18:21:58.232Z,15.45
2023-01-02T18:24:30.967Z,16.73
2023-01-02T18:27:12.065Z,13.68
2023-01-02T18:29:44.448Z,15.52
2023-01-02T18:32:21.571Z,14.25
2023-01-02T18:34:57.405Z,18.48
2023-01-02T18:37:30.266Z,12.95
2023-01-02T18:40:02.544Z,17.48
2023-01-02T18:42:37.427Z,14.82
2023-01-02T18:45:16.979Z,14.27
2023-01-02T18:47:48.405Z,15.15
2023-01-02T18:50:32.135Z,16.83
2023-01-02T18:53:12.540Z,15.15
2023-01-02T18:55:43.756Z,15.80
2023-01-02T18:58:34.102Z,13.20
2023-01-02T19:01:26.168Z,14.85
2023-01-02T19:04:26.682Z,12.02
2023-01-02T19:07:00.247Z,11.43
2023-01-02T19:09:33.291Z,12.20
2023-01-02T19:12:36.261Z,10.23
2023-01-02T19:15:33.379Z,14.70
2023-01-02T19:18:18.598Z,13.05
2023-01-02T19:20:53.871Z,14.57
2023-01-02T19:23:29.701Z,16.38
2023-01-02T19:26:12.925Z,10.95
2023-01-02T19:28:50.697Z,14.73
2023-01-02T19:31:21.794Z,11.15
2023-01-02T19:33:56.373Z,12.05
2023-01-02T19:36:36.611Z,14.05
2023-01-02T19:39:25.110Z,9.93
2023-01-02T19:42:11.837Z,13.15
2023-01-02T19:44:42.377Z,16.13
2023-01-02T19:47:13.754Z,10.10
2023-01-02T19:49:43.023Z,11.20
2023-01-02T19:54:42.071Z,6.50
2023-01-02T19:57:12.667Z,10.63
2023-01-02T19:59:45.441Z,12.13
2023-01-02T20:02:18.344Z,9.88
2023-01-02T20:04:52.304Z,11.45
2023-01-02T20:07:22.585Z,10.65
2023-01-02T20:09:53.057Z,12.05
2023-01-02T20:12:34.185Z,12.30
2023-01-02T20:15:10.214Z,4.13
2023-01-02T20:17:43.515Z,4.32
2023-01-02T20:20:15.914Z,2.67
2023-01-02T20:22:46.623Z,2.40
2023-01-02T20:25:18.311Z,1.05
2023-01-02T20:27:50.075Z,2.05
2023-01-02T20:30:24.499Z,1.48
2023-01-02T20:32:56.953Z,2.35
2023-01-02T20:35:27.883Z,4.70
2023-01-02T20:37:57.349Z,4.03
2023-01-02T20:40:28.014Z,2.40
2023-01-02T20:42:57.449Z,1.75
2023-01-02T20:45:26.418Z,2.05
2023-01-02T20:47:57.119Z,1.92
2023-01-02T20:50:26.244Z,1.58
2023-01-02T20:52:57.074Z,4.38
2023-01-02T20:55:26.582Z,6.18
2023-01-02T20:57:56.301Z,3.50
2023-01-02T21:00:25.510Z,0.70
2023-01-02T21:02:56.697Z,0.52
2023-01-02T21:05:26.566Z,1.20
2023-01-02T21:10:24.806Z,4.05
2023-01-02T21:13:10.829Z,1.17
2023-01-02T21:15:45.560Z,2.28
2023-01-02T21:18:18.586Z,2.10
2023-01-02T21:20:49.555Z,2.15
2023-01-02T21:23:19.685Z,5.75
2023-01-02T21:25:52.340Z,2.28
2023-01-02T21:28:22.738Z,3.65
2023-01-02T21:30:53.466Z,3.03
2023-01-02T21:33:27.231Z,0.98
2023-01-02T21:35:58.331Z,3.08
2023-01-02T21:38:28.899Z,0.73
2023-01-02T21:41:20.550Z,3.72
2023-01-02T21:43:50.193Z,2.47
2023-01-02T21:46:19.421Z,1.90
2023-01-02T21:48:50.473Z,1.95
2023-01-02T21:51:19.601Z,2.30
2023-01-02T21:53:48.953Z,0.80
2023-01-02T21:56:18.128Z,2.35
2023-01-02T21:58:47.589Z,2.75
2023-01-02T22:01:16.938Z,2.65
2023-01-02T22:06:18.592Z,1.83
2023-01-02T22:08:48.011Z,1.25
2023-01-02T22:11:34.538Z,1.83
2023-01-02T22:14:03.973Z,2.65
2023-01-02T22:16:32.980Z,2.15
2023-01-02T22:19:02.423Z,3.22
2023-01-02T22:21:32.794Z,2.63
2023-01-02T22:24:02.569Z,1.63
2023-01-02T22:26:32.165Z,1.45
2023-01-02T22:29:01.716Z,2.35
2023-01-02T22:31:31.251Z,4.60
2023-01-02T22:34:01.620Z,1.98
2023-01-02T22:36:32.484Z,2.88
2023-01-02T22:39:26.920Z,2.00
2023-01-02T22:42:34.080Z,2.83
2023-01-02T22:45:07.285Z,2.45
2023-01-02T22:47:39.368Z,3.47
2023-01-02T22:50:12.280Z,3.70
2023-01-02T22:52:43.528Z,2.75
2023-01-02T22:55:18.234Z,2.20
2023-01-02T22:57:51.317Z,2.85
2023-01-02T23:00:23.363Z,3.85
2023-01-02T23:02:53.024Z,2.95
2023-01-02T23:05:22.941Z,3.50
2023-01-02T23:07:53.932Z,2.40
2023-01-02T23:10:23.922Z,3.17
2023-01-02T23:12:52.909Z,3.97
2023-01-02T23:15:22.343Z,4.65
2023-01-02T23:18:08.710Z,2.90
2023-01-02T23:20:38.004Z,1.50
2023-01-02T23:23:08.655Z,2.90
2023-01-02T23:25:42.340Z,1.63
2023-01-02T23:28:16.595Z,2.67
2023-01-02T23:30:55.342Z,1.40
2023-01-02T23:33:24.337Z,5.35
2023-01-02T23:35:54.139Z,1.02
2023-01-02T23:38:24.536Z,1.88
2023-01-02T23:40:53.905Z,2.03
2023-01-02T23:43:22.913Z,2.67
2023-01-02T23:45:52.798Z,1.10
2023-01-02T23:48:21.859Z,3.67
2023-01-02T23:50:58.721Z,3.30
2023-01-02T23:53:29.575Z,1.40
2023-01-02T23:56:00.126Z,2.30
2023-01-02T23:58:29.389Z,2.15
